Time;durP1;ratioP1;P1;durP2;ratioP2;P2;SDS_P1;SDS_P2;PMS_P1;PMS_P2;Temp;Humidity;BMP_temperature;BMP_pressure;BME280_temperature;BME280_humidity;BME280_pressure;Samples;Min_cycle;Max_cycle;Signal;HPM_P1;HPM_P2
2023/08/08 00:01:03;;;;;;;;;;;;;;;;;;6305019;28;19928;-57
2023/08/08 00:04:10;;;;;;;;;;;;;;;;;;6307226;28;19927;-57
2023/08/08 00:07:10;;;;;;;;;;;;;;;;;;6306287;28;19951;-58
2023/08/08 00:10:11;;;;;;;;;;;;;;;;;;6305651;28;19973;-59
2023/08/08 00:13:11;;;;;;;;;;;;;;;;;;6305862;28;19931;-56
2023/08/08 00:16:12;;;;;;;;;;;;;;;;;;6308950;28;19924;-57
2023/08/08 00:19:12;;;;;;;;;;;;;;;;;;6306071;28;19928;-58
2023/08/08 00:22:13;;;;;;;;;;;;;;;;;;6306915;28;19928;-53
2023/08/08 00:25:13;;;;;;;;;;;;;;;;;;6307727;28;19935;-58
2023/08/08 00:28:14;;;;;;;;;;;;;;;;;;6304213;28;19928;-57
2023/08/08 00:31:17;;;;;;;;;;;;;;;;;;6306949;28;19997;-56
2023/08/08 00:34:18;;;;;;;;;;;;;;;;;;6305741;28;20007;-57
2023/08/08 00:37:18;;;;;;;;;;;;;;;;;;6306316;28;19931;-59
2023/08/08 00:40:19;;;;;;;;;;;;;;;;;;6306914;28;20747;-56
2023/08/08 00:43:19;;;;;;;;;;;;;;;;;;6309317;28;20278;-55
2023/08/08 00:46:21;;;;;;;;;;;;;;;;;;6305568;28;19924;-57
2023/08/08 00:49:22;;;;;;;;;;;;;;;;;;6302915;28;19982;-57
2023/08/08 00:52:23;;;;;;;;;;;;;;;;;;6310918;28;19928;-58
2023/08/08 00:55:23;;;;;;;;;;;;;;;;;;6308556;28;19928;-56
2023/08/08 00:58:24;;;;;;;;;;;;;;;;;;6306790;28;19924;-57
2023/08/08 01:01:25;;;;;;;;;;;;;;;;;;6307200;28;19920;-58
2023/08/08 01:04:26;;;;;;;;;;;;;;;;;;6308589;28;20031;-59
2023/08/08 01:07:27;;;;;;;;;;;;;;;;;;6306329;28;20294;-58
2023/08/08 01:10:29;;;;;;;;;;;;;;;;;;6304333;28;20420;-57
2023/08/08 01:13:31;;;;;;;;;;;;;;;;;;6308001;28;19927;-59
2023/08/08 01:16:32;;;;;;;;;;;;;;;;;;6310588;28;19928;-57
2023/08/08 01:19:34;;;;;;;;;;;;;;;;;;6305802;28;19927;-58
2023/08/08 01:22:42;;;;;;;;;;;;;;;;;;6309994;28;19932;-58
2023/08/08 01:25:43;;;;;;;;;;;;;;;;;;6306655;28;19923;-57
2023/08/08 01:28:44;;;;;;;;;;;;;;;;;;6306726;28;19927;-58
2023/08/08 01:31:44;;;;;;;;;;;;;;;;;;6305753;28;19973;-58
2023/08/08 01:34:45;;;;;;;;;;;;;;;;;;6306610;28;19928;-57
2023/08/08 01:37:48;;;;;;;;;;;;;;;;;;6308712;28;19935;-57
2023/08/08 01:40:49;;;;;;;;;;;;;;;;;;6304481;28;19950;-60
2023/08/08 01:43:50;;;;;;;;;;;;;;;;;;6309684;28;19927;-58
2023/08/08 01:46:50;;;;;;;;;;;;;;;;;;6307945;28;19938;-57
2023/08/08 01:49:51;;;;;;;;;;;;;;;;;;6302084;28;20049;-57
2023/08/08 01:52:51;;;;;;;;;;;;;;;;;;6303406;28;20426;-57
2023/08/08 01:55:52;;;;;;;;;;;;;;;;;;6303758;28;19928;-57
2023/08/08 01:58:52;;;;;;;;;;;;;;;;;;6304408;28;20011;-58
2023/08/08 02:01:53;;;;;;;;;;;;;;;;;;6306204;28;20385;-60
2023/08/08 02:04:54;;;;;;;;;;;;;;;;;;6302618;28;19924;-57
2023/08/08 02:07:55;;;;;;;;;;;;;;;;;;6304077;28;20375;-59
2023/08/08 02:10:56;;;;;;;;;;;;;;;;;;6306357;28;19920;-58
2023/08/08 02:13:56;;;;;;;;;;;;;;;;;;6304559;28;19935;-58
2023/08/08 02:16:57;;;;;;;;;;;;;;;;;;6306970;28;20330;-58
2023/08/08 02:19:57;;;;;;;;;;;;;;;;;;6301455;28;19928;-58
2023/08/08 02:22:58;;;;;;;;;;;;;;;;;;6302253;28;20518;-56
2023/08/08 02:25:58;;;;;;;;;;;;;;;;;;6303149;28;19920;-57
2023/08/08 02:28:59;;;;;;;;;;;;;;;;;;6301560;28;20330;-59
2023/08/08 02:31:59;;;;;;;;;;;;;;;;;;6302734;28;20470;-56
2023/08/08 02:35:00;;;;;;;;;;;;;;;;;;6300410;28;20004;-57
2023/08/08 02:38:00;;;;;;;;;;;;;;;;;;6297030;28;19993;-56
2023/08/08 02:41:01;;;;;;;;;;;;;;;;;;6296065;28;19977;-55
2023/08/08 02:44:02;;;;;;;;;;;;;;;;;;6295523;28;20015;-57
2023/08/08 02:47:02;;;;;;;;;;;;;;;;;;6278165;28;19924;-56
2023/08/08 02:50:03;;;;;;;;;;;;;;;;;;6290486;28;19927;-58
2023/08/08 02:53:04;;;;;;;;;;;;;;;;;;6294088;28;19924;-56
2023/08/08 02:56:04;;;;;;;;;;;;;;;;;;6294732;28;19928;-57
2023/08/08 02:59:05;;;;;;;;;;;;;;;;;;6293302;28;19982;-59
2023/08/08 03:02:05;;;;;;;;;;;;;;;;;;6294635;28;19923;-57
2023/08/08 03:05:06;;;;;;;;;;;;;;;;;;6294299;28;19931;-55
2023/08/08 03:08:06;;;;;;;;;;;;;;;;;;6293867;28;19931;-56
2023/08/08 03:11:07;;;;;;;;;;;;;;;;;;6293507;28;19928;-57
2023/08/08 03:14:08;;;;;;;;;;;;;;;;;;6292968;28;20371;-57
2023/08/08 03:17:09;;;;;;;;;;;;;;;;;;6299037;28;19942;-55
2023/08/08 03:20:10;;;;;;;;;;;;;;;;;;6297902;28;19924;-55
2023/08/08 03:23:11;;;;;;;;;;;;;;;;;;6299730;28;19924;-57
2023/08/08 03:26:11;;;;;;;;;;;;;;;;;;6299552;28;19931;-55
2023/08/08 03:29:12;;;;;;;;;;;;;;;;;;6299671;28;20369;-57
2023/08/08 03:32:13;;;;;;;;;;;;;;;;;;6296837;28;19924;-55
2023/08/08 03:35:14;;;;;;;;;;;;;;;;;;6300713;28;19924;-54
2023/08/08 03:38:15;;;;;;;;;;;;;;;;;;6297978;28;19989;-57
2023/08/08 03:41:15;;;;;;;;;;;;;;;;;;6297749;28;19954;-53
2023/08/08 03:44:16;;;;;;;;;;;;;;;;;;6297055;28;19932;-56
2023/08/08 03:47:16;;;;;;;;;;;;;;;;;;6297616;28;19985;-56
2023/08/08 03:50:17;;;;;;;;;;;;;;;;;;6297344;28;19924;-55
2023/08/08 03:53:18;;;;;;;;;;;;;;;;;;6295829;28;19924;-55
2023/08/08 03:56:18;;;;;;;;;;;;;;;;;;6299191;28;20602;-56
2023/08/08 03:59:19;;;;;;;;;;;;;;;;;;6295147;28;19974;-56
2023/08/08 04:02:19;;;;;;;;;;;;;;;;;;6299397;28;20660;-56
2023/08/08 04:05:20;;;;;;;;;;;;;;;;;;6286264;28;19924;-55
2023/08/08 04:08:20;;;;;;;;;;;;;;;;;;6298101;28;19966;-58
2023/08/08 04:11:21;;;;;;;;;;;;;;;;;;6297602;28;19924;-58
2023/08/08 04:14:21;;;;;;;;;;;;;;;;;;6298797;28;19968;-56
2023/08/08 04:17:22;;;;;;;;;;;;;;;;;;6302837;28;19951;-60
2023/08/08 04:20:22;;;;;;;;;;;;;;;;;;6299023;28;19947;-58
2023/08/08 04:23:25;;;;;;;;;;;;;;;;;;6304151;28;19923;-56
2023/08/08 04:26:26;;;;;;;;;;;;;;;;;;6305005;28;20260;-56
2023/08/08 04:29:26;;;;;;;;;;;;;;;;;;6297618;28;19920;-57
2023/08/08 04:32:27;;;;;;;;;;;;;;;;;;6297299;28;19925;-56
2023/08/08 04:35:28;;;;;;;;;;;;;;;;;;6294756;28;19967;-57
2023/08/08 04:38:28;;;;;;;;;;;;;;;;;;6297861;28;19927;-60
2023/08/08 04:41:29;;;;;;;;;;;;;;;;;;6295162;28;20540;-56
2023/08/08 04:44:29;;;;;;;;;;;;;;;;;;6293312;28;20390;-55
2023/08/08 04:47:30;;;;;;;;;;;;;;;;;;6296944;28;19924;-57
2023/08/08 04:50:30;;;;;;;;;;;;;;;;;;6301896;28;20077;-57
2023/08/08 04:53:31;;;;;;;;;;;;;;;;;;6301276;28;20001;-56
2023/08/08 04:56:31;;;;;;;;;;;;;;;;;;6302981;28;19928;-57
2023/08/08 04:59:32;;;;;;;;;;;;;;;;;;6296851;28;20259;-56
2023/08/08 05:02:32;;;;;;;;;;;;;;;;;;6303179;28;19947;-58
2023/08/08 05:05:33;;;;;;;;;;;;;;;;;;6298013;28;19931;-58
2023/08/08 05:08:33;;;;;;;;;;;;;;;;;;6298125;28;20038;-58
2023/08/08 05:11:34;;;;;;;;;;;;;;;;;;6294854;28;19935;-61
2023/08/08 05:14:34;;;;;;;;;;;;;;;;;;6298100;28;19928;-57
2023/08/08 05:17:35;;;;;;;;;;;;;;;;;;6297360;28;19931;-58
2023/08/08 05:20:35;;;;;;;;;;;;;;;;;;6293088;28;19927;-58
2023/08/08 05:23:36;;;;;;;;;;;;;;;;;;6306581;28;20370;-57
2023/08/08 05:26:36;;;;;;;;;;;;;;;;;;6308896;28;20403;-57
2023/08/08 05:29:38;;;;;;;;;;;;;;;;;;6292738;28;19920;-54
2023/08/08 05:32:38;;;;;;;;;;;;;;;;;;6293368;28;19924;-56
2023/08/08 05:35:39;;;;;;;;;;;;;;;;;;6317148;28;19931;-59
2023/08/08 05:38:40;;;;;;;;;;;;;;;;;;6295757;28;19951;-57
2023/08/08 05:41:41;;;;;;;;;;;;;;;;;;6295384;28;19935;-59
2023/08/08 05:44:41;;;;;;;;;;;;;;;;;;6307227;28;20115;-58
2023/08/08 05:47:42;;;;;;;;;;;;;;;;;;6309513;28;19920;-58
2023/08/08 05:50:42;;;;;;;;;;;;;;;;;;6303559;28;20394;-58
2023/08/08 05:53:43;;;;;;;;;;;;;;;;;;6309475;28;19928;-58
2023/08/08 05:56:43;;;;;;;;;;;;;;;;;;6307466;28;20406;-59
2023/08/08 05:59:44;;;;;;;;;;;;;;;;;;6309531;28;19961;-58
2023/08/08 06:02:45;;;;;;;;;;;;;;;;;;6304565;28;20391;-56
2023/08/08 06:05:46;;;;;;;;;;;;;;;;;;6307183;28;19977;-59
2023/08/08 06:08:46;;;;;;;;;;;;;;;;;;6306218;28;20418;-59
2023/08/08 06:11:47;;;;;;;;;;;;;;;;;;6305733;28;20010;-58
2023/08/08 06:14:48;;;;;;;;;;;;;;;;;;6304983;28;20420;-58
2023/08/08 06:17:48;;;;;;;;;;;;;;;;;;6305882;28;19962;-58
2023/08/08 06:20:49;;;;;;;;;;;;;;;;;;6307148;28;19925;-58
2023/08/08 06:23:50;;;;;;;;;;;;;;;;;;6306875;28;20014;-59
2023/08/08 06:26:50;;;;;;;;;;;;;;;;;;6301468;28;19921;-60
2023/08/08 06:29:51;;;;;;;;;;;;;;;;;;6305837;28;19924;-58
2023/08/08 06:32:52;;;;;;;;;;;;;;;;;;6307284;28;19927;-59
2023/08/08 06:35:52;;;;;;;;;;;;;;;;;;6304665;28;19951;-58
2023/08/08 06:38:52;;;;;;;;;;;;;;;;;;6301749;28;19927;-56
2023/08/08 06:41:53;;;;;;;;;;;;;;;;;;6308748;28;19920;-58
2023/08/08 06:44:53;;;;;;;;;;;;;;;;;;6306433;28;19932;-58
2023/08/08 06:47:54;;;;;;;;;;;;;;;;;;6310387;28;19959;-57
2023/08/08 06:50:55;;;;;;;;;;;;;;;;;;6306495;28;20355;-54
2023/08/08 06:53:55;;;;;;;;;;;;;;;;;;6312689;28;20381;-57
2023/08/08 06:56:57;;;;;;;;;;;;;;;;;;6312255;28;20547;-58
2023/08/08 06:59:57;;;;;;;;;;;;;;;;;;6308010;28;19930;-53
2023/08/08 07:02:58;;;;;;;;;;;;;;;;;;6308197;28;19928;-58
2023/08/08 07:06:00;;;;;;;;;;;;;;;;;;6312010;28;20064;-58
2023/08/08 07:09:00;;;;;;;;;;;;;;;;;;6312194;28;19924;-55
2023/08/08 07:12:01;;;;;;;;;;;;;;;;;;6308935;28;20426;-56
2023/08/08 07:15:01;;;;;;;;;;;;;;;;;;6311099;28;20291;-57
2023/08/08 07:18:02;;;;;;;;;;;;;;;;;;6311990;28;20323;-58
2023/08/08 07:21:03;;;;;;;;;;;;;;;;;;6312081;28;20602;-58
2023/08/08 07:24:03;;;;;;;;;;;;;;;;;;6310710;28;19920;-58
2023/08/08 07:27:04;;;;;;;;;;;;;;;;;;6317458;28;20402;-58
2023/08/08 07:30:06;;;;;;;;;;;;;;;;;;6305281;28;20291;-58
2023/08/08 07:33:10;;;;;;;;;;;;;;;;;;6302195;28;20252;-58
2023/08/08 07:36:10;;;;;;;;;;;;;;;;;;6300208;28;19932;-58
2023/08/08 07:39:11;;;;;;;;;;;;;;;;;;6300873;28;20378;-58
2023/08/08 07:42:11;;;;;;;;;;;;;;;;;;6299204;28;19978;-56
2023/08/08 07:45:12;;;;;;;;;;;;;;;;;;6296474;28;19924;-57
2023/08/08 07:48:13;;;;;;;;;;;;;;;;;;6297740;28;19963;-58
2023/08/08 07:51:13;;;;;;;;;;;;;;;;;;6298622;28;19920;-58
2023/08/08 07:54:14;;;;;;;;;;;;;;;;;;6298105;28;19930;-56
2023/08/08 07:57:14;;;;;;;;;;;;;;;;;;6298656;28;19931;-57
2023/08/08 08:00:18;;;;;;;;;;;;;;;;;;6298329;28;19924;-55
2023/08/08 08:03:19;;;;;;;;;;;;;;;;;;6299542;28;20382;-56
2023/08/08 08:06:20;;;;;;;;;;;;;;;;;;6297171;28;19994;-58
2023/08/08 08:09:20;;;;;;;;;;;;;;;;;;6299852;28;19962;-56
2023/08/08 08:12:21;;;;;;;;;;;;;;;;;;6300175;28;20304;-57
2023/08/08 08:15:21;;;;;;;;;;;;;;;;;;6296943;28;19924;-56
2023/08/08 08:18:22;;;;;;;;;;;;;;;;;;6298252;28;19927;-56
2023/08/08 08:21:22;;;;;;;;;;;;;;;;;;6298075;28;19928;-59
2023/08/08 08:24:23;;;;;;;;;;;;;;;;;;6299179;28;19920;-56
2023/08/08 08:27:23;;;;;;;;;;;;;;;;;;6295950;28;20573;-57
2023/08/08 08:30:26;;;;;;;;;;;;;;;;;;6299378;28;19986;-57
2023/08/08 08:33:26;;;;;;;;;;;;;;;;;;6298170;28;20073;-57
2023/08/08 08:36:27;;;;;;;;;;;;;;;;;;6300657;28;20439;-57
2023/08/08 08:39:28;;;;;;;;;;;;;;;;;;6309869;28;20009;-58
2023/08/08 08:42:29;;;;;;;;;;;;;;;;;;6306435;28;19924;-58
2023/08/08 08:45:30;;;;;;;;;;;;;;;;;;6299373;28;19924;-55
2023/08/08 08:48:31;;;;;;;;;;;;;;;;;;6295520;28;20014;-59
2023/08/08 08:51:32;;;;;;;;;;;;;;;;;;6296950;28;19924;-58
2023/08/08 08:54:33;;;;;;;;;;;;;;;;;;6297153;28;19942;-57
2023/08/08 08:57:33;;;;;;;;;;;;;;;;;;6296284;28;19932;-57
2023/08/08 09:00:34;;;;;;;;;;;;;;;;;;6299016;28;19924;-57
2023/08/08 09:03:38;;;;;;;;;;;;;;;;;;6298370;28;19928;-58
2023/08/08 09:06:39;;;;;;;;;;;;;;;;;;6297848;28;19930;-59
2023/08/08 09:09:42;;;;;;;;;;;;;;;;;;6298447;28;20423;-58
2023/08/08 09:12:43;;;;;;;;;;;;;;;;;;6296834;28;19928;-58
2023/08/08 09:15:46;;;;;;;;;;;;;;;;;;6296054;28;19924;-58
2023/08/08 09:18:47;;;;;;;;;;;;;;;;;;6294321;28;20377;-58
2023/08/08 09:21:48;;;;;;;;;;;;;;;;;;6298048;28;19930;-58
2023/08/08 09:24:49;;;;;;;;;;;;;;;;;;6297032;28;20591;-56
2023/08/08 09:27:51;;;;;;;;;;;;;;;;;;6297422;28;19978;-55
2023/08/08 09:30:53;;;;;;;;;;;;;;;;;;6295893;28;19924;-58
2023/08/08 09:33:54;;;;;;;;;;;;;;;;;;6296538;28;19928;-57
2023/08/08 09:36:54;;;;;;;;;;;;;;;;;;6292879;28;19924;-58
2023/08/08 09:39:56;;;;;;;;;;;;;;;;;;6296168;28;19931;-59
2023/08/08 09:42:56;;;;;;;;;;;;;;;;;;6296272;28;19951;-58
2023/08/08 09:45:57;;;;;;;;;;;;;;;;;;6297083;28;19920;-58
2023/08/08 09:48:58;;;;;;;;;;;;;;;;;;6297266;28;19920;-58
2023/08/08 09:51:58;;;;;;;;;;;;;;;;;;6297613;28;19923;-58
2023/08/08 09:54:59;;;;;;;;;;;;;;;;;;6297483;28;19940;-58
2023/08/08 09:58:00;;;;;;;;;;;;;;;;;;6297082;28;19927;-57
2023/08/08 10:01:00;;;;;;;;;;;;;;;;;;6296949;28;19951;-57
2023/08/08 10:04:02;;;;;;;;;;;;;;;;;;6295795;28;20387;-55
2023/08/08 10:07:04;;;;;;;;;;;;;;;;;;6296444;28;19976;-57
2023/08/08 10:10:04;;;;;;;;;;;;;;;;;;6294769;28;19920;-58
2023/08/08 10:13:05;;;;;;;;;;;;;;;;;;6297764;28;19924;-57
2023/08/08 10:16:09;;;;;;;;;;;;;;;;;;6297914;28;19946;-56
2023/08/08 10:19:09;;;;;;;;;;;;;;;;;;6295010;28;20007;-58
2023/08/08 10:22:10;;;;;;;;;;;;;;;;;;6296349;28;20371;-56
2023/08/08 10:25:22;;;;;;;;;;;;;;;;;;6295323;28;19920;-56
2023/08/08 10:28:25;;;;;;;;;;;;;;;;;;6295561;28;19927;-59
2023/08/08 10:31:26;;;;;;;;;;;;;;;;;;6295190;28;19968;-56
2023/08/08 10:34:37;;;;;;;;;;;;;;;;;;6295946;28;20373;-59
2023/08/08 10:37:39;;;;;;;;;;;;;;;;;;6296742;28;19962;-58
2023/08/08 10:40:42;;;;;;;;;;;;;;;;;;6293602;28;19931;-58
2023/08/08 10:43:49;;;;;;;;;;;;;;;;;;6295900;28;19942;-57
2023/08/08 10:46:50;;;;;;;;;;;;;;;;;;6296781;28;19946;-59
2023/08/08 10:50:11;;;;;;;;;;;;;;;;;;6297333;28;19924;-57
2023/08/08 10:53:11;;;;;;;;;;;;;;;;;;6295528;28;20306;-56
2023/08/08 10:56:13;;;;;;;;;;;;;;;;;;6295810;28;19965;-59
2023/08/08 10:59:37;;;;;;;;;;;;;;;;;;6297555;28;19924;-58
2023/08/08 11:02:38;;;;;;;;;;;;;;;;;;6284824;28;20234;-57
2023/08/08 11:05:39;;;;;;;;;;;;;;;;;;6295536;28;19920;-57
2023/08/08 11:08:39;;;;;;;;;;;;;;;;;;6295249;28;19986;-58
2023/08/08 11:11:41;;;;;;;;;;;;;;;;;;6294536;28;19920;-58
2023/08/08 11:14:41;;;;;;;;;;;;;;;;;;6296730;28;20042;-58
2023/08/08 11:17:42;;;;;;;;;;;;;;;;;;6295612;28;19928;-57
2023/08/08 11:20:43;;;;;;;;;;;;;;;;;;6294962;28;19928;-56
2023/08/08 11:23:47;;;;;;;;;;;;;;;;;;6294749;28;19943;-58
2023/08/08 11:26:47;;;;;;;;;;;;;;;;;;6296038;28;19931;-56
2023/08/08 11:29:51;;;;;;;;;;;;;;;;;;6296272;28;19931;-60
2023/08/08 11:32:52;;;;;;;;;;;;;;;;;;6294509;28;19948;-60
2023/08/08 11:35:52;;;;;;;;;;;;;;;;;;6295786;28;20379;-61
2023/08/08 11:38:53;;;;;;;;;;;;;;;;;;6299015;28;19924;-60
2023/08/08 11:41:55;;;;;;;;;;;;;;;;;;6298930;28;20848;-61
2023/08/08 11:44:55;;;;;;;;;;;;;;;;;;6300742;28;19924;-61
2023/08/08 11:47:56;;;;;;;;;;;;;;;;;;6299683;28;19946;-60
2023/08/08 11:50:57;;;;;;;;;;;;;;;;;;6297729;28;19946;-60
2023/08/08 11:53:58;;;;;;;;;;;;;;;;;;6300671;28;19974;-61
2023/08/08 11:57:00;;;;;;;;;;;;;;;;;;6300316;28;20368;-61
2023/08/08 12:00:02;;;;;;;;;;;;;;;;;;6295646;28;20026;-61
2023/08/08 12:03:04;;;;;;;;;;;;;;;;;;6299627;28;19927;-61
2023/08/08 12:06:11;;;;;;;;;;;;;;;;;;6299766;28;20395;-60
2023/08/08 12:09:15;;;;;;;;;;;;;;;;;;6301289;28;19920;-60
2023/08/08 12:12:16;;;;;;;;;;;;;;;;;;6301835;28;19921;-61
2023/08/08 12:15:16;;;;;;;;;;;;;;;;;;6298484;28;20001;-61
2023/08/08 12:18:20;;;;;;;;;;;;;;;;;;6298531;28;19920;-61
2023/08/08 12:21:21;;;;;;;;;;;;;;;;;;6294825;28;19928;-61
2023/08/08 12:24:21;;;;;;;;;;;;;;;;;;6296281;28;19927;-61
2023/08/08 12:27:22;;;;;;;;;;;;;;;;;;6313139;28;19927;-60
2023/08/08 12:30:22;;;;;;;;;;;;;;;;;;6308698;28;19959;-61
2023/08/08 12:33:23;;;;;;;;;;;;;;;;;;6307165;28;20450;-60
2023/08/08 12:36:24;;;;;;;;;;;;;;;;;;6304404;28;20706;-61
2023/08/08 12:39:24;;;;;;;;;;;;;;;;;;6308484;28;20515;-59
2023/08/08 12:42:25;;;;;;;;;;;;;;;;;;6310398;28;19924;-60
2023/08/08 12:45:26;;;;;;;;;;;;;;;;;;6306466;28;19947;-58
2023/08/08 12:48:26;;;;;;;;;;;;;;;;;;6302909;28;19924;-56
2023/08/08 12:51:26;;;;;;;;;;;;;;;;;;6311076;28;19954;-59
2023/08/08 12:54:27;;;;;;;;;;;;;;;;;;6307658;28;19931;-60
2023/08/08 12:57:28;;;;;;;;;;;;;;;;;;6307960;28;19958;-60
2023/08/08 13:00:28;;;;;;;;;;;;;;;;;;6311055;28;19924;-59
2023/08/08 13:03:30;;;;;;;;;;;;;;;;;;6309313;28;19936;-61
2023/08/08 13:06:30;;;;;;;;;;;;;;;;;;6305274;28;19928;-61
2023/08/08 13:09:31;;;;;;;;;;;;;;;;;;6307068;28;20565;-61
2023/08/08 13:12:32;;;;;;;;;;;;;;;;;;6285952;28;20100;-62
2023/08/08 13:15:32;;;;;;;;;;;;;;;;;;6304699;28;19971;-60
2023/08/08 13:18:33;;;;;;;;;;;;;;;;;;6303424;28;19935;-61
2023/08/08 13:21:34;;;;;;;;;;;;;;;;;;6308482;28;19928;-58
2023/08/08 13:24:34;;;;;;;;;;;;;;;;;;6304432;28;19928;-56
2023/08/08 13:27:35;;;;;;;;;;;;;;;;;;6306971;28;19981;-58
2023/08/08 13:30:35;;;;;;;;;;;;;;;;;;6307039;28;20852;-56
2023/08/08 13:33:36;;;;;;;;;;;;;;;;;;6302710;28;19934;-59
2023/08/08 13:36:36;;;;;;;;;;;;;;;;;;6299416;28;19947;-61
2023/08/08 13:39:37;;;;;;;;;;;;;;;;;;6306248;28;19924;-60
2023/08/08 13:42:38;;;;;;;;;;;;;;;;;;6308148;28;20481;-58
2023/08/08 13:45:39;;;;;;;;;;;;;;;;;;6304703;28;19923;-60
2023/08/08 13:48:39;;;;;;;;;;;;;;;;;;6306582;28;19950;-57
2023/08/08 13:51:40;;;;;;;;;;;;;;;;;;6305290;28;20073;-58
2023/08/08 13:54:40;;;;;;;;;;;;;;;;;;6304127;28;19924;-59
2023/08/08 13:57:41;;;;;;;;;;;;;;;;;;6305392;28;20364;-58
2023/08/08 14:00:41;;;;;;;;;;;;;;;;;;6306653;28;19934;-60
2023/08/08 14:03:42;;;;;;;;;;;;;;;;;;6318543;28;19946;-58
2023/08/08 14:06:42;;;;;;;;;;;;;;;;;;6318733;28;19990;-59
2023/08/08 14:09:43;;;;;;;;;;;;;;;;;;6311175;28;19920;-59
2023/08/08 14:12:43;;;;;;;;;;;;;;;;;;6311728;28;19936;-58
2023/08/08 14:15:45;;;;;;;;;;;;;;;;;;6315926;28;20390;-58
2023/08/08 14:18:45;;;;;;;;;;;;;;;;;;6315304;28;20943;-60
2023/08/08 14:21:46;;;;;;;;;;;;;;;;;;6305916;28;20038;-57
2023/08/08 14:24:46;;;;;;;;;;;;;;;;;;6298353;28;19920;-59
2023/08/08 14:27:47;;;;;;;;;;;;;;;;;;6303626;28;19928;-61
2023/08/08 14:30:47;;;;;;;;;;;;;;;;;;6304199;28;19977;-57
2023/08/08 14:33:48;;;;;;;;;;;;;;;;;;6304139;28;19928;-60
2023/08/08 14:36:48;;;;;;;;;;;;;;;;;;6306436;28;19976;-57
2023/08/08 14:39:49;;;;;;;;;;;;;;;;;;6307599;28;19952;-57
2023/08/08 14:42:49;;;;;;;;;;;;;;;;;;6304570;28;20529;-61
2023/08/08 14:45:50;;;;;;;;;;;;;;;;;;6311292;28;19970;-59
2023/08/08 14:48:50;;;;;;;;;;;;;;;;;;6309324;28;19920;-59
2023/08/08 14:51:51;;;;;;;;;;;;;;;;;;6315436;28;19924;-60
2023/08/08 14:54:51;;;;;;;;;;;;;;;;;;6311694;28;19924;-60
2023/08/08 14:57:52;;;;;;;;;;;;;;;;;;6314395;28;19927;-59
2023/08/08 15:00:53;;;;;;;;;;;;;;;;;;6318314;28;19955;-60
2023/08/08 15:03:53;;;;;;;;;;;;;;;;;;6312145;28;20050;-59
2023/08/08 15:06:54;;;;;;;;;;;;;;;;;;6317570;28;20037;-60
2023/08/08 15:09:55;;;;;;;;;;;;;;;;;;6313139;28;19927;-60
2023/08/08 15:12:55;;;;;;;;;;;;;;;;;;6318585;28;20356;-59
2023/08/08 15:15:56;;;;;;;;;;;;;;;;;;6319778;28;19972;-60
2023/08/08 15:18:56;;;;;;;;;;;;;;;;;;6322507;28;20355;-59
2023/08/08 15:21:57;;;;;;;;;;;;;;;;;;6318796;28;19924;-60
2023/08/08 15:24:57;;;;;;;;;;;;;;;;;;6320574;28;19949;-59
2023/08/08 15:27:58;;;;;;;;;;;;;;;;;;6316938;28;20570;-60
2023/08/08 15:30:58;;;;;;;;;;;;;;;;;;6325125;28;19951;-59
2023/08/08 15:34:00;;;;;;;;;;;;;;;;;;6319811;28;21146;-59
2023/08/08 15:37:01;;;;;;;;;;;;;;;;;;6325431;28;20329;-59
2023/08/08 15:40:02;;;;;;;;;;;;;;;;;;6321435;28;20393;-59
2023/08/08 15:43:02;;;;;;;;;;;;;;;;;;6319010;28;19924;-60
2023/08/08 15:46:03;;;;;;;;;;;;;;;;;;6319106;28;20663;-59
2023/08/08 15:49:06;;;;;;;;;;;;;;;;;;6325913;28;19923;-59
2023/08/08 15:52:07;;;;;;;;;;;;;;;;;;6306229;28;19928;-59
2023/08/08 15:55:09;;;;;;;;;;;;;;;;;;6316237;28;19935;-58
2023/08/08 15:58:09;;;;;;;;;;;;;;;;;;6315405;28;20038;-59
2023/08/08 16:01:10;;;;;;;;;;;;;;;;;;6317078;28;19924;-59
2023/08/08 16:04:12;;;;;;;;;;;;;;;;;;6318795;28;20318;-58
2023/08/08 16:07:17;;;;;;;;;;;;;;;;;;6318407;28;19924;-58
2023/08/08 16:10:18;;;;;;;;;;;;;;;;;;6324611;28;19961;-57
2023/08/08 16:13:18;;;;;;;;;;;;;;;;;;6318900;28;19928;-59
2023/08/08 16:16:19;;;;;;;;;;;;;;;;;;6316035;28;19924;-58
2023/08/08 16:19:19;;;;;;;;;;;;;;;;;;6316893;28;20404;-59
2023/08/08 16:22:20;;;;;;;;;;;;;;;;;;6317939;28;20454;-59
2023/08/08 16:25:20;;;;;;;;;;;;;;;;;;6308557;28;19949;-58
2023/08/08 16:28:23;;;;;;;;;;;;;;;;;;6292269;28;19935;-59
2023/08/08 16:31:23;;;;;;;;;;;;;;;;;;6315477;28;20267;-60
2023/08/08 16:34:24;;;;;;;;;;;;;;;;;;6299337;28;19924;-59
2023/08/08 16:37:24;;;;;;;;;;;;;;;;;;6310212;28;19928;-59
2023/08/08 16:40:25;;;;;;;;;;;;;;;;;;6311736;28;19928;-59
2023/08/08 16:43:30;;;;;;;;;;;;;;;;;;6307801;28;19931;-59
2023/08/08 16:46:34;;;;;;;;;;;;;;;;;;6302100;28;19929;-56
2023/08/08 16:49:35;;;;;;;;;;;;;;;;;;6302723;28;19924;-59
2023/08/08 16:52:36;;;;;;;;;;;;;;;;;;6295371;28;19928;-59
2023/08/08 16:55:37;;;;;;;;;;;;;;;;;;6300488;28;19935;-60
2023/08/08 16:58:39;;;;;;;;;;;;;;;;;;6297522;28;19930;-59
2023/08/08 17:01:41;;;;;;;;;;;;;;;;;;6299955;28;19931;-58
2023/08/08 17:04:42;;;;;;;;;;;;;;;;;;6292403;28;19924;-59
2023/08/08 17:07:42;;;;;;;;;;;;;;;;;;6301970;28;19984;-60
2023/08/08 17:10:43;;;;;;;;;;;;;;;;;;6295568;28;19924;-58
2023/08/08 17:13:45;;;;;;;;;;;;;;;;;;6293692;28;19929;-59
2023/08/08 17:16:46;;;;;;;;;;;;;;;;;;6302077;28;19924;-58
2023/08/08 17:19:47;;;;;;;;;;;;;;;;;;6306319;28;20359;-59
2023/08/08 17:22:48;;;;;;;;;;;;;;;;;;6295431;28;20026;-60
2023/08/08 17:25:48;;;;;;;;;;;;;;;;;;6295726;28;19935;-58
2023/08/08 17:28:49;;;;;;;;;;;;;;;;;;6299329;28;19935;-59
2023/08/08 17:31:50;;;;;;;;;;;;;;;;;;6295252;28;19929;-55
2023/08/08 17:34:50;;;;;;;;;;;;;;;;;;6296558;28;19950;-58
2023/08/08 17:37:51;;;;;;;;;;;;;;;;;;6299720;28;19924;-56
2023/08/08 17:40:51;;;;;;;;;;;;;;;;;;6304223;28;19975;-59
2023/08/08 17:43:53;;;;;;;;;;;;;;;;;;6298988;28;20046;-55
2023/08/08 17:46:54;;;;;;;;;;;;;;;;;;6306471;28;19928;-55
2023/08/08 17:49:54;;;;;;;;;;;;;;;;;;6296199;28;19928;-56
2023/08/08 17:52:55;;;;;;;;;;;;;;;;;;6293439;28;19932;-55
2023/08/08 17:55:55;;;;;;;;;;;;;;;;;;6305832;28;19959;-57
2023/08/08 17:58:56;;;;;;;;;;;;;;;;;;6292093;28;19977;-60
2023/08/08 18:01:56;;;;;;;;;;;;;;;;;;6294434;28;19946;-59
2023/08/08 18:04:57;;;;;;;;;;;;;;;;;;6296747;28;19972;-57
2023/08/08 18:07:57;;;;;;;;;;;;;;;;;;6301247;28;19948;-60
2023/08/08 18:10:58;;;;;;;;;;;;;;;;;;6288634;28;20604;-56
2023/08/08 18:13:59;;;;;;;;;;;;;;;;;;6293825;28;19939;-56
2023/08/08 18:16:59;;;;;;;;;;;;;;;;;;6296038;28;20559;-57
2023/08/08 18:20:00;;;;;;;;;;;;;;;;;;6300870;28;19928;-54
2023/08/08 18:23:00;;;;;;;;;;;;;;;;;;6300141;28;19929;-58
2023/08/08 18:26:02;;;;;;;;;;;;;;;;;;6296949;28;20483;-56
2023/08/08 18:29:04;;;;;;;;;;;;;;;;;;6298913;28;21374;-56
2023/08/08 18:32:05;;;;;;;;;;;;;;;;;;6302841;28;21274;-55
2023/08/08 18:35:05;;;;;;;;;;;;;;;;;;6289705;28;19932;-56
2023/08/08 18:38:06;;;;;;;;;;;;;;;;;;6299713;28;19990;-57
2023/08/08 18:41:06;;;;;;;;;;;;;;;;;;6295698;28;19930;-58
2023/08/08 18:44:07;;;;;;;;;;;;;;;;;;6293353;28;20401;-58
2023/08/08 18:47:08;;;;;;;;;;;;;;;;;;6298843;28;19935;-57
2023/08/08 18:50:08;;;;;;;;;;;;;;;;;;6303631;28;19928;-55
2023/08/08 18:53:09;;;;;;;;;;;;;;;;;;6302445;28;19960;-54
2023/08/08 18:56:09;;;;;;;;;;;;;;;;;;6298394;28;19924;-56
2023/08/08 18:59:10;;;;;;;;;;;;;;;;;;6296841;28;19924;-57
2023/08/08 19:02:11;;;;;;;;;;;;;;;;;;6296927;28;20369;-53
2023/08/08 19:05:12;;;;;;;;;;;;;;;;;;6290174;28;20291;-55
2023/08/08 19:08:12;;;;;;;;;;;;;;;;;;6297783;28;20394;-55
2023/08/08 19:11:13;;;;;;;;;;;;;;;;;;6304244;28;19920;-52
2023/08/08 19:14:13;;;;;;;;;;;;;;;;;;6297435;28;19920;-55
2023/08/08 19:17:14;;;;;;;;;;;;;;;;;;6307938;28;19920;-54
2023/08/08 19:20:14;;;;;;;;;;;;;;;;;;6305444;28;20325;-56
2023/08/08 19:23:15;;;;;;;;;;;;;;;;;;6304476;28;21531;-53
2023/08/08 19:26:19;;;;;;;;;;;;;;;;;;6305767;28;19924;-52
2023/08/08 19:29:22;;;;;;;;;;;;;;;;;;6308389;28;20502;-54
2023/08/08 19:32:23;;;;;;;;;;;;;;;;;;6303468;28;19928;-55
2023/08/08 19:35:24;;;;;;;;;;;;;;;;;;6315437;28;19928;-58
2023/08/08 19:38:25;;;;;;;;;;;;;;;;;;6317238;28;21049;-56
2023/08/08 19:41:25;;;;;;;;;;;;;;;;;;6313400;28;19928;-56
2023/08/08 19:44:26;;;;;;;;;;;;;;;;;;6302009;28;19927;-57
2023/08/08 19:47:27;;;;;;;;;;;;;;;;;;6302116;28;19964;-55
2023/08/08 19:50:27;;;;;;;;;;;;;;;;;;6302968;28;19971;-55
2023/08/08 19:53:28;;;;;;;;;;;;;;;;;;6297322;28;20385;-56
2023/08/08 19:56:28;;;;;;;;;;;;;;;;;;6306620;28;19928;-55
2023/08/08 19:59:29;;;;;;;;;;;;;;;;;;6305127;28;20024;-55
2023/08/08 20:02:29;;;;;;;;;;;;;;;;;;6303725;28;20355;-54
2023/08/08 20:05:30;;;;;;;;;;;;;;;;;;6310225;28;19928;-54
2023/08/08 20:08:31;;;;;;;;;;;;;;;;;;6306952;28;19928;-57
2023/08/08 20:11:33;;;;;;;;;;;;;;;;;;6303668;28;19928;-57
2023/08/08 20:14:34;;;;;;;;;;;;;;;;;;6300664;28;19946;-54
2023/08/08 20:17:34;;;;;;;;;;;;;;;;;;6310923;28;20408;-55
2023/08/08 20:20:35;;;;;;;;;;;;;;;;;;6305622;28;19968;-55
2023/08/08 20:23:35;;;;;;;;;;;;;;;;;;6307395;28;20514;-54
2023/08/08 20:26:36;;;;;;;;;;;;;;;;;;6308442;28;19928;-56
2023/08/08 20:29:37;;;;;;;;;;;;;;;;;;6309129;28;21339;-55
2023/08/08 20:32:37;;;;;;;;;;;;;;;;;;6309109;28;20335;-55
2023/08/08 20:35:38;;;;;;;;;;;;;;;;;;6300678;28;19997;-53